sensor_id;sensor_type;location;lat;lon;timestamp;pressure;altitude;pressure_sealevel;temperature;humidity
22651;BME280;11492;42.646;23.400;2023-02-16T00:01:29;96321.88;;;0.88;70.68
22651;BME280;11492;42.646;23.400;2023-02-16T00:03:56;96315.28;;;0.99;70.59
22651;BME280;11492;42.646;23.400;2023-02-16T00:06:23;96321.63;;;1.06;70.51
22651;BME280;11492;42.646;23.400;2023-02-16T00:08:51;96318.44;;;1.02;70.31
22651;BME280;11492;42.646;23.400;2023-02-16T00:14:04;96317.09;;;0.97;69.88
22651;BME280;11492;42.646;23.400;2023-02-16T00:16:31;96315.28;;;0.99;69.85
22651;BME280;11492;42.646;23.400;2023-02-16T00:18:56;96324.63;;;1.12;69.03
22651;BME280;11492;42.646;23.400;2023-02-16T00:21:22;96314.09;;;1.04;69.44
22651;BME280;11492;42.646;23.400;2023-02-16T00:23:47;96309.00;;;1.18;69.73
22651;BME280;11492;42.646;23.400;2023-02-16T00:26:19;96314.56;;;1.24;69.05
22651;BME280;11492;42.646;23.400;2023-02-16T00:28:45;96313.72;;;1.24;69.21
22651;BME280;11492;42.646;23.400;2023-02-16T00:31:18;96313.00;;;1.22;69.17
22651;BME280;11492;42.646;23.400;2023-02-16T00:33:44;96313.66;;;1.25;68.94
22651;BME280;11492;42.646;23.400;2023-02-16T00:36:09;96315.81;;;1.31;68.44
22651;BME280;11492;42.646;23.400;2023-02-16T00:38:35;96310.66;;;1.19;68.98
22651;BME280;11492;42.646;23.400;2023-02-16T00:41:00;96310.19;;;1.13;69.10
22651;BME280;11492;42.646;23.400;2023-02-16T00:43:28;96313.84;;;1.09;69.40
22651;BME280;11492;42.646;23.400;2023-02-16T00:45:54;96317.34;;;0.93;69.26
22651;BME280;11492;42.646;23.400;2023-02-16T00:48:21;96308.66;;;0.83;70.17
22651;BME280;11492;42.646;23.400;2023-02-16T00:50:46;96309.38;;;0.85;70.01
22651;BME280;11492;42.646;23.400;2023-02-16T00:53:13;96311.72;;;0.74;70.09
22651;BME280;11492;42.646;23.400;2023-02-16T00:55:40;96307.56;;;0.73;70.43
22651;BME280;11492;42.646;23.400;2023-02-16T00:58:07;96311.19;;;0.83;69.72
22651;BME280;11492;42.646;23.400;2023-02-16T01:00:38;96307.56;;;0.87;69.68
22651;BME280;11492;42.646;23.400;2023-02-16T01:03:07;96314.53;;;0.97;69.14
22651;BME280;11492;42.646;23.400;2023-02-16T01:05:33;96309.19;;;1.01;68.36
22651;BME280;11492;42.646;23.400;2023-02-16T01:07:59;96291.06;;;0.94;68.21
22651;BME280;11492;42.646;23.400;2023-02-16T01:10:44;96306.00;;;0.98;69.05
22651;BME280;11492;42.646;23.400;2023-02-16T01:13:28;96300.31;;;0.95;68.81
22651;BME280;11492;42.646;23.400;2023-02-16T01:15:56;96299.28;;;0.97;68.70
22651;BME280;11492;42.646;23.400;2023-02-16T01:18:21;96302.59;;;0.99;68.95
22651;BME280;11492;42.646;23.400;2023-02-16T01:20:47;96292.59;;;0.96;68.50
22651;BME280;11492;42.646;23.400;2023-02-16T01:23:13;96283.97;;;0.85;68.59
22651;BME280;11492;42.646;23.400;2023-02-16T01:25:39;96288.69;;;0.91;69.42
22651;BME280;11492;42.646;23.400;2023-02-16T01:28:25;96288.03;;;0.87;68.39
22651;BME280;11492;42.646;23.400;2023-02-16T01:30:52;96284.22;;;0.80;68.53
22651;BME280;11492;42.646;23.400;2023-02-16T01:33:18;96277.16;;;0.72;69.12
22651;BME280;11492;42.646;23.400;2023-02-16T01:35:44;96281.25;;;0.74;68.71
22651;BME280;11492;42.646;23.400;2023-02-16T01:38:16;96278.25;;;0.68;68.70
22651;BME280;11492;42.646;23.400;2023-02-16T01:40:48;96279.69;;;0.58;68.78
22651;BME280;11492;42.646;23.400;2023-02-16T01:46:06;96267.25;;;0.53;69.36
22651;BME280;11492;42.646;23.400;2023-02-16T01:48:36;96265.63;;;0.52;69.70
22651;BME280;11492;42.646;23.400;2023-02-16T01:51:27;96263.63;;;0.57;69.72
22651;BME280;11492;42.646;23.400;2023-02-16T01:54:09;96267.59;;;0.34;69.75
22651;BME280;11492;42.646;23.400;2023-02-16T01:56:43;96271.03;;;0.47;69.11
22651;BME280;11492;42.646;23.400;2023-02-16T01:59:26;96267.63;;;0.48;69.21
22651;BME280;11492;42.646;23.400;2023-02-16T02:01:57;96268.88;;;0.54;69.35
22651;BME280;11492;42.646;23.400;2023-02-16T02:04:39;96264.31;;;0.46;69.50
22651;BME280;11492;42.646;23.400;2023-02-16T02:07:32;96260.56;;;0.52;69.46
22651;BME280;11492;42.646;23.400;2023-02-16T02:10:16;96265.69;;;0.37;69.44
22651;BME280;11492;42.646;23.400;2023-02-16T02:12:52;96266.81;;;0.47;69.74
22651;BME280;11492;42.646;23.400;2023-02-16T02:15:27;96275.78;;;0.52;69.60
22651;BME280;11492;42.646;23.400;2023-02-16T02:17:54;96261.34;;;0.39;69.65
22651;BME280;11492;42.646;23.400;2023-02-16T02:43:22;96270.22;;;0.32;69.50
22651;BME280;11492;42.646;23.400;2023-02-16T02:45:55;96264.69;;;0.26;69.06
22651;BME280;11492;42.646;23.400;2023-02-16T02:48:23;96259.06;;;0.21;69.19
22651;BME280;11492;42.646;23.400;2023-02-16T02:51:00;96264.28;;;0.18;69.17
22651;BME280;11492;42.646;23.400;2023-02-16T02:54:11;96262.25;;;0.09;68.89
22651;BME280;11492;42.646;23.400;2023-02-16T02:56:58;96265.16;;;0.03;69.26
22651;BME280;11492;42.646;23.400;2023-02-16T02:59:49;96263.69;;;-0.01;69.93
22651;BME280;11492;42.646;23.400;2023-02-16T03:02:35;96268.03;;;-0.02;69.50
22651;BME280;11492;42.646;23.400;2023-02-16T03:05:02;96263.88;;;-0.03;69.91
22651;BME280;11492;42.646;23.400;2023-02-16T03:07:30;96265.94;;;-0.10;70.23
22651;BME280;11492;42.646;23.400;2023-02-16T03:10:20;96255.38;;;-0.18;69.88
22651;BME280;11492;42.646;23.400;2023-02-16T03:13:20;96267.81;;;-0.13;69.80
22651;BME280;11492;42.646;23.400;2023-02-16T03:15:48;96266.81;;;-0.11;70.28
22651;BME280;11492;42.646;23.400;2023-02-16T03:18:16;96265.13;;;-0.10;70.84
22651;BME280;11492;42.646;23.400;2023-02-16T03:21:01;96269.34;;;-0.11;70.53
22651;BME280;11492;42.646;23.400;2023-02-16T03:23:47;96262.91;;;-0.16;70.85
22651;BME280;11492;42.646;23.400;2023-02-16T03:26:32;96265.16;;;-0.25;70.78
22651;BME280;11492;42.646;23.400;2023-02-16T03:29:18;96261.97;;;-0.29;70.48
22651;BME280;11492;42.646;23.400;2023-02-16T03:31:48;96264.06;;;-0.22;70.77
22651;BME280;11492;42.646;23.400;2023-02-16T03:34:15;96258.38;;;-0.11;70.64
22651;BME280;11492;42.646;23.400;2023-02-16T03:36:44;96266.31;;;-0.02;70.55
22651;BME280;11492;42.646;23.400;2023-02-16T03:39:11;96259.63;;;-0.18;70.37
22651;BME280;11492;42.646;23.400;2023-02-16T03:41:45;96261.59;;;-0.08;70.67
22651;BME280;11492;42.646;23.400;2023-02-16T03:44:12;96243.81;;;-0.08;70.46
22651;BME280;11492;42.646;23.400;2023-02-16T03:46:37;96258.44;;;0.02;70.17
22651;BME280;11492;42.646;23.400;2023-02-16T03:49:03;96258.81;;;0.10;69.31
22651;BME280;11492;42.646;23.400;2023-02-16T03:51:28;96266.44;;;0.10;69.46
22651;BME280;11492;42.646;23.400;2023-02-16T03:53:54;96263.00;;;0.11;69.01
22651;BME280;11492;42.646;23.400;2023-02-16T03:56:19;96255.00;;;0.03;69.37
22651;BME280;11492;42.646;23.400;2023-02-16T03:58:45;96259.91;;;0.06;69.61
22651;BME280;11492;42.646;23.400;2023-02-16T04:01:10;96260.22;;;-0.13;69.61
22651;BME280;11492;42.646;23.400;2023-02-16T04:03:35;96248.94;;;-0.23;69.90
22651;BME280;11492;42.646;23.400;2023-02-16T04:06:01;96255.06;;;-0.27;70.26
22651;BME280;11492;42.646;23.400;2023-02-16T04:08:27;96256.47;;;-0.37;70.67
22651;BME280;11492;42.646;23.400;2023-02-16T04:10:52;96248.72;;;-0.34;70.43
22651;BME280;11492;42.646;23.400;2023-02-16T04:13:19;96260.31;;;-0.30;70.41
22651;BME280;11492;42.646;23.400;2023-02-16T04:15:45;96237.66;;;-0.33;70.71
22651;BME280;11492;42.646;23.400;2023-02-16T04:18:10;96249.25;;;-0.14;69.85
22651;BME280;11492;42.646;23.400;2023-02-16T04:20:36;96252.59;;;-0.13;70.16
22651;BME280;11492;42.646;23.400;2023-02-16T04:23:02;96249.41;;;-0.17;69.56
22651;BME280;11492;42.646;23.400;2023-02-16T04:25:27;96241.06;;;-0.19;69.61
22651;BME280;11492;42.646;23.400;2023-02-16T04:27:53;96247.63;;;-0.15;69.27
22651;BME280;11492;42.646;23.400;2023-02-16T04:30:21;96242.53;;;-0.15;69.67
22651;BME280;11492;42.646;23.400;2023-02-16T04:32:47;96238.63;;;-0.20;70.04
22651;BME280;11492;42.646;23.400;2023-02-16T04:35:13;96235.94;;;-0.32;69.21
22651;BME280;11492;42.646;23.400;2023-02-16T04:37:39;96244.69;;;-0.38;69.73
22651;BME280;11492;42.646;23.400;2023-02-16T04:40:05;96247.81;;;-0.33;69.92
22651;BME280;11492;42.646;23.400;2023-02-16T04:42:31;96259.66;;;-0.33;69.78
22651;BME280;11492;42.646;23.400;2023-02-16T04:44:57;96255.59;;;-0.36;69.93
22651;BME280;11492;42.646;23.400;2023-02-16T04:47:22;96254.94;;;-0.39;69.52
22651;BME280;11492;42.646;23.400;2023-02-16T04:49:51;96262.78;;;-0.44;70.30
22651;BME280;11492;42.646;23.400;2023-02-16T04:52:16;96248.81;;;-0.50;69.42
22651;BME280;11492;42.646;23.400;2023-02-16T04:54:42;96257.41;;;-0.53;69.86
22651;BME280;11492;42.646;23.400;2023-02-16T04:57:08;96257.81;;;-0.60;69.49
22651;BME280;11492;42.646;23.400;2023-02-16T04:59:35;96262.97;;;-0.62;70.44
22651;BME280;11492;42.646;23.400;2023-02-16T05:02:00;96268.53;;;-0.71;70.36
22651;BME280;11492;42.646;23.400;2023-02-16T05:04:27;96275.38;;;-0.73;70.06
22651;BME280;11492;42.646;23.400;2023-02-16T05:06:52;96273.28;;;-0.80;70.72
22651;BME280;11492;42.646;23.400;2023-02-16T05:09:18;96277.03;;;-0.87;70.59
22651;BME280;11492;42.646;23.400;2023-02-16T05:11:43;96276.53;;;-0.93;71.72
22651;BME280;11492;42.646;23.400;2023-02-16T05:14:29;96277.66;;;-0.99;71.70
22651;BME280;11492;42.646;23.400;2023-02-16T05:17:21;96276.34;;;-1.05;71.75
22651;BME280;11492;42.646;23.400;2023-02-16T05:19:52;96279.63;;;-1.19;72.27
22651;BME280;11492;42.646;23.400;2023-02-16T05:22:18;96275.59;;;-1.23;73.13
22651;BME280;11492;42.646;23.400;2023-02-16T05:24:44;96278.84;;;-1.21;73.00
22651;BME280;11492;42.646;23.400;2023-02-16T05:27:18;96269.13;;;-1.28;73.00
22651;BME280;11492;42.646;23.400;2023-02-16T05:29:44;96285.22;;;-1.29;73.48
22651;BME280;11492;42.646;23.400;2023-02-16T05:32:09;96288.88;;;-1.34;73.32
22651;BME280;11492;42.646;23.400;2023-02-16T05:34:35;96281.34;;;-1.36;73.62
22651;BME280;11492;42.646;23.400;2023-02-16T05:37:00;96291.47;;;-1.36;74.66
22651;BME280;11492;42.646;23.400;2023-02-16T05:39:26;96289.75;;;-1.35;74.92
22651;BME280;11492;42.646;23.400;2023-02-16T05:41:52;96298.03;;;-1.32;75.20
22651;BME280;11492;42.646;23.400;2023-02-16T05:44:18;96302.78;;;-1.26;75.72
22651;BME280;11492;42.646;23.400;2023-02-16T05:46:43;96287.59;;;-1.26;75.33
22651;BME280;11492;42.646;23.400;2023-02-16T05:49:11;96293.97;;;-1.19;74.78
22651;BME280;11492;42.646;23.400;2023-02-16T05:51:37;96296.22;;;-1.13;74.83
22651;BME280;11492;42.646;23.400;2023-02-16T05:54:03;96295.44;;;-1.15;74.46
22651;BME280;11492;42.646;23.400;2023-02-16T05:56:28;96291.06;;;-1.12;74.44
22651;BME280;11492;42.646;23.400;2023-02-16T05:58:54;96294.97;;;-1.06;74.43
22651;BME280;11492;42.646;23.400;2023-02-16T06:01:20;96293.00;;;-1.17;74.21
22651;BME280;11492;42.646;23.400;2023-02-16T06:03:45;96297.78;;;-0.96;73.06
22651;BME280;11492;42.646;23.400;2023-02-16T06:06:11;96290.03;;;-0.93;72.75
22651;BME280;11492;42.646;23.400;2023-02-16T06:08:37;96300.56;;;-0.85;73.36
22651;BME280;11492;42.646;23.400;2023-02-16T06:11:04;96278.00;;;-0.89;74.02
22651;BME280;11492;42.646;23.400;2023-02-16T06:13:53;96294.78;;;-0.72;74.40
22651;BME280;11492;42.646;23.400;2023-02-16T06:16:25;96307.53;;;-0.58;74.38
22651;BME280;11492;42.646;23.400;2023-02-16T06:18:52;96309.72;;;-0.52;73.66
22651;BME280;11492;42.646;23.400;2023-02-16T06:21:17;96311.19;;;-0.48;73.76
22651;BME280;11492;42.646;23.400;2023-02-16T06:23:43;96316.28;;;-0.33;72.56
22651;BME280;11492;42.646;23.400;2023-02-16T06:26:08;96316.03;;;-0.28;72.25
22651;BME280;11492;42.646;23.400;2023-02-16T06:28:34;96321.00;;;-0.27;71.43
22651;BME280;11492;42.646;23.400;2023-02-16T06:30:59;96322.00;;;-0.29;71.72
22651;BME280;11492;42.646;23.400;2023-02-16T06:33:24;96323.97;;;-0.19;71.88
22651;BME280;11492;42.646;23.400;2023-02-16T06:35:50;96332.47;;;-0.20;71.91
22651;BME280;11492;42.646;23.400;2023-02-16T06:38:15;96335.25;;;-0.09;72.06
22651;BME280;11492;42.646;23.400;2023-02-16T06:40:41;96340.13;;;-0.06;72.43
22651;BME280;11492;42.646;23.400;2023-02-16T06:43:06;96336.66;;;0.10;71.79
22651;BME280;11492;42.646;23.400;2023-02-16T06:45:31;96347.78;;;0.23;71.93
22651;BME280;11492;42.646;23.400;2023-02-16T06:47:57;96336.47;;;0.28;71.97
22651;BME280;11492;42.646;23.400;2023-02-16T06:50:22;96332.88;;;0.32;71.81
22651;BME280;11492;42.646;23.400;2023-02-16T06:52:47;96336.72;;;0.24;72.07
22651;BME280;11492;42.646;23.400;2023-02-16T06:55:13;96343.66;;;0.35;72.90
22651;BME280;11492;42.646;23.400;2023-02-16T06:57:38;96324.66;;;0.42;72.20
22651;BME280;11492;42.646;23.400;2023-02-16T07:00:04;96328.22;;;0.53;71.43
22651;BME280;11492;42.646;23.400;2023-02-16T07:02:31;96330.38;;;0.59;71.81
22651;BME280;11492;42.646;23.400;2023-02-16T07:04:57;96335.84;;;0.67;71.90
22651;BME280;11492;42.646;23.400;2023-02-16T07:07:22;96324.84;;;0.67;70.80
22651;BME280;11492;42.646;23.400;2023-02-16T07:09:48;96332.88;;;0.74;71.13
22651;BME280;11492;42.646;23.400;2023-02-16T07:12:13;96328.44;;;0.78;71.04
22651;BME280;11492;42.646;23.400;2023-02-16T07:14:39;96332.50;;;0.80;71.89
22651;BME280;11492;42.646;23.400;2023-02-16T07:17:04;96320.63;;;0.95;71.06
22651;BME280;11492;42.646;23.400;2023-02-16T07:19:30;96317.53;;;1.03;71.61
22651;BME280;11492;42.646;23.400;2023-02-16T07:21:59;96316.44;;;1.07;71.35
22651;BME280;11492;42.646;23.400;2023-02-16T07:24:24;96308.19;;;1.18;70.47
22651;BME280;11492;42.646;23.400;2023-02-16T07:26:50;96296.66;;;1.26;70.84
22651;BME280;11492;42.646;23.400;2023-02-16T07:29:15;96299.75;;;1.31;70.70
22651;BME280;11492;42.646;23.400;2023-02-16T07:31:41;96292.00;;;1.32;70.33
22651;BME280;11492;42.646;23.400;2023-02-16T07:34:07;96301.63;;;1.41;70.71
22651;BME280;11492;42.646;23.400;2023-02-16T07:36:33;96295.25;;;1.48;70.34
22651;BME280;11492;42.646;23.400;2023-02-16T07:38:58;96291.34;;;1.56;70.01
22651;BME280;11492;42.646;23.400;2023-02-16T07:41:24;96303.19;;;1.96;74.14
22651;BME280;11492;42.646;23.400;2023-02-16T07:43:49;96293.66;;;2.37;71.56
22651;BME280;11492;42.646;23.400;2023-02-16T07:46:15;96303.47;;;2.68;69.72
22651;BME280;11492;42.646;23.400;2023-02-16T07:48:40;96278.81;;;2.68;66.94
22651;BME280;11492;42.646;23.400;2023-02-16T07:51:06;96269.53;;;2.67;66.26
22651;BME280;11492;42.646;23.400;2023-02-16T07:53:32;96285.97;;;2.75;66.90
22651;BME280;11492;42.646;23.400;2023-02-16T07:55:57;96277.50;;;2.75;66.81
22651;BME280;11492;42.646;23.400;2023-02-16T07:58:22;96284.53;;;2.84;66.88
22651;BME280;11492;42.646;23.400;2023-02-16T08:01:12;96297.38;;;2.95;66.39
22651;BME280;11492;42.646;23.400;2023-02-16T08:03:38;96293.31;;;2.92;66.96
22651;BME280;11492;42.646;23.400;2023-02-16T08:06:05;96297.28;;;2.96;66.52
22651;BME280;11492;42.646;23.400;2023-02-16T08:08:31;96306.88;;;2.93;67.50
22651;BME280;11492;42.646;23.400;2023-02-16T08:10:56;96290.88;;;2.91;66.98
22651;BME280;11492;42.646;23.400;2023-02-16T08:13:22;96300.84;;;3.06;67.00
22651;BME280;11492;42.646;23.400;2023-02-16T08:15:47;96294.41;;;3.13;66.42
22651;BME280;11492;42.646;23.400;2023-02-16T08:18:13;96296.16;;;3.12;66.44
22651;BME280;11492;42.646;23.400;2023-02-16T08:20:39;96310.50;;;3.25;66.61
22651;BME280;11492;42.646;23.400;2023-02-16T08:23:05;96305.84;;;3.32;66.78
22651;BME280;11492;42.646;23.400;2023-02-16T08:25:32;96303.66;;;3.38;67.19
22651;BME280;11492;42.646;23.400;2023-02-16T08:27:59;96313.16;;;3.48;67.09
22651;BME280;11492;42.646;23.400;2023-02-16T08:30:24;96300.84;;;3.66;66.49
22651;BME280;11492;42.646;23.400;2023-02-16T08:32:50;96301.75;;;5.12;62.90
22651;BME280;11492;42.646;23.400;2023-02-16T08:35:17;96285.09;;;7.35;56.27
22651;BME280;11492;42.646;23.400;2023-02-16T08:37:43;96296.28;;;9.23;50.47
22651;BME280;11492;42.646;23.400;2023-02-16T08:40:09;96289.84;;;10.69;47.23
22651;BME280;11492;42.646;23.400;2023-02-16T08:42:35;96285.13;;;11.74;44.73
22651;BME280;11492;42.646;23.400;2023-02-16T08:45:02;96281.91;;;13.08;40.65
22651;BME280;11492;42.646;23.400;2023-02-16T08:47:28;96273.53;;;14.29;38.42
22651;BME280;11492;42.646;23.400;2023-02-16T08:49:54;96266.00;;;15.30;36.96
22651;BME280;11492;42.646;23.400;2023-02-16T08:52:20;96267.50;;;15.61;35.31
22651;BME280;11492;42.646;23.400;2023-02-16T08:54:45;96281.00;;;16.07;34.66
22651;BME280;11492;42.646;23.400;2023-02-16T08:57:11;96268.31;;;16.32;34.01
22651;BME280;11492;42.646;23.400;2023-02-16T08:59:36;96263.16;;;16.39;33.51
22651;BME280;11492;42.646;23.400;2023-02-16T09:02:02;96274.38;;;16.88;33.01
22651;BME280;11492;42.646;23.400;2023-02-16T09:04:27;96266.38;;;17.31;32.54
22651;BME280;11492;42.646;23.400;2023-02-16T09:06:54;96270.63;;;17.38;31.38
22651;BME280;11492;42.646;23.400;2023-02-16T09:09:20;96264.19;;;17.61;31.29
22651;BME280;11492;42.646;23.400;2023-02-16T09:11:47;96256.16;;;17.63;31.09
22651;BME280;11492;42.646;23.400;2023-02-16T09:14:13;96270.38;;;17.81;30.55
22651;BME280;11492;42.646;23.400;2023-02-16T09:16:40;96245.09;;;17.34;30.49
22651;BME280;11492;42.646;23.400;2023-02-16T09:19:11;96243.66;;;17.58;31.02
22651;BME280;11492;42.646;23.400;2023-02-16T09:21:38;96259.78;;;18.22;30.42
22651;BME280;11492;42.646;23.400;2023-02-16T09:24:05;96245.16;;;18.00;30.53
22651;BME280;11492;42.646;23.400;2023-02-16T09:26:34;96256.84;;;18.38;29.93
22651;BME280;11492;42.646;23.400;2023-02-16T09:29:01;96255.69;;;18.07;29.46
22651;BME280;11492;42.646;23.400;2023-02-16T09:31:29;96236.22;;;17.89;31.07
22651;BME280;11492;42.646;23.400;2023-02-16T09:33:59;96247.91;;;18.26;29.28
22651;BME280;11492;42.646;23.400;2023-02-16T09:36:26;96246.69;;;18.68;29.01
22651;BME280;11492;42.646;23.400;2023-02-16T09:38:52;96233.09;;;19.11;28.79
22651;BME280;11492;42.646;23.400;2023-02-16T09:43:57;96243.16;;;19.33;28.45
22651;BME280;11492;42.646;23.400;2023-02-16T09:46:24;96220.16;;;18.97;28.89
22651;BME280;11492;42.646;23.400;2023-02-16T09:48:50;96233.31;;;18.57;29.45
22651;BME280;11492;42.646;23.400;2023-02-16T09:51:31;96238.31;;;18.39;29.49
22651;BME280;11492;42.646;23.400;2023-02-16T09:54:15;96233.78;;;18.14;29.39
22651;BME280;11492;42.646;23.400;2023-02-16T09:56:54;96225.69;;;18.62;29.49
22651;BME280;11492;42.646;23.400;2023-02-16T10:05:15;96211.53;;;19.22;28.83
22651;BME280;11492;42.646;23.400;2023-02-16T10:10:15;96203.66;;;19.73;28.12
22651;BME280;11492;42.646;23.400;2023-02-16T10:15:33;96192.66;;;20.01;27.52
22651;BME280;11492;42.646;23.400;2023-02-16T10:18:28;96200.94;;;20.48;26.55
22651;BME280;11492;42.646;23.400;2023-02-16T10:20:59;96180.34;;;20.01;26.87
22651;BME280;11492;42.646;23.400;2023-02-16T10:40:21;96180.25;;;19.52;27.04
22651;BME280;11492;42.646;23.400;2023-02-16T10:42:55;96178.84;;;19.49;26.98
22651;BME280;11492;42.646;23.400;2023-02-16T10:45:30;96180.69;;;19.30;27.54
22651;BME280;11492;42.646;23.400;2023-02-16T10:47:57;96161.88;;;19.65;27.64
22651;BME280;11492;42.646;23.400;2023-02-16T10:52:49;96171.59;;;20.26;26.79
22651;BME280;11492;42.646;23.400;2023-02-16T10:55:16;96160.34;;;20.87;26.19
22651;BME280;11492;42.646;23.400;2023-02-16T10:57:42;96146.31;;;20.69;26.08
22651;BME280;11492;42.646;23.400;2023-02-16T11:00:14;96159.97;;;20.83;25.62
22651;BME280;11492;42.646;23.400;2023-02-16T11:02:47;96150.19;;;20.97;27.00
22651;BME280;11492;42.646;23.400;2023-02-16T11:07:52;96147.13;;;21.23;26.30
22651;BME280;11492;42.646;23.400;2023-02-16T11:10:22;96140.81;;;21.31;25.48
22651;BME280;11492;42.646;23.400;2023-02-16T11:12:57;96145.66;;;21.34;25.52
22651;BME280;11492;42.646;23.400;2023-02-16T11:15:25;96136.19;;;21.68;25.71
22651;BME280;11492;42.646;23.400;2023-02-16T11:18:03;96131.00;;;21.62;24.67
22651;BME280;11492;42.646;23.400;2023-02-16T11:20:34;96134.91;;;21.35;24.78
22651;BME280;11492;42.646;23.400;2023-02-16T11:25:38;96119.19;;;22.93;23.51
22651;BME280;11492;42.646;23.400;2023-02-16T11:28:04;96120.28;;;22.74;23.91
22651;BME280;11492;42.646;23.400;2023-02-16T11:30:32;96120.50;;;23.24;23.32
22651;BME280;11492;42.646;23.400;2023-02-16T11:33:01;96114.78;;;23.61;23.09
22651;BME280;11492;42.646;23.400;2023-02-16T11:35:30;96115.38;;;24.51;22.36
22651;BME280;11492;42.646;23.400;2023-02-16T11:37:57;96101.97;;;24.14;22.26
22651;BME280;11492;42.646;23.400;2023-02-16T11:40:28;96110.31;;;24.77;21.53
22651;BME280;11492;42.646;23.400;2023-02-16T11:42:57;96104.03;;;24.12;22.41
22651;BME280;11492;42.646;23.400;2023-02-16T11:45:27;96094.81;;;23.65;22.11
22651;BME280;11492;42.646;23.400;2023-02-16T11:47:57;96099.66;;;24.06;22.05
22651;BME280;11492;42.646;23.400;2023-02-16T11:50:28;96105.31;;;23.99;21.94
22651;BME280;11492;42.646;23.400;2023-02-16T11:53:15;96102.91;;;24.36;21.76
22651;BME280;11492;42.646;23.400;2023-02-16T11:55:47;96092.16;;;24.81;21.54
22651;BME280;11492;42.646;23.400;2023-02-16T12:09:10;96066.31;;;28.56;17.95
22651;BME280;11492;42.646;23.400;2023-02-16T12:43:37;96021.88;;;29.60;17.26
22651;BME280;11492;42.646;23.400;2023-02-16T12:46:28;96020.22;;;30.41;16.45
22651;BME280;11492;42.646;23.400;2023-02-16T12:48:59;96004.34;;;31.02;16.43
22651;BME280;11492;42.646;23.400;2023-02-16T12:51:37;96007.56;;;30.99;16.19
22651;BME280;11492;42.646;23.400;2023-02-16T12:54:21;96012.94;;;31.55;15.41
22651;BME280;11492;42.646;23.400;2023-02-16T12:56:56;95999.59;;;31.27;15.65
22651;BME280;11492;42.646;23.400;2023-02-16T12:59:47;95992.66;;;30.12;15.79
22651;BME280;11492;42.646;23.400;2023-02-16T13:02:26;96004.66;;;30.05;16.43
22651;BME280;11492;42.646;23.400;2023-02-16T13:04:59;95986.31;;;29.94;16.31
22651;BME280;11492;42.646;23.400;2023-02-16T13:07:31;95995.25;;;29.50;16.24
22651;BME280;11492;42.646;23.400;2023-02-16T13:12:53;95990.53;;;30.05;16.38
22651;BME280;11492;42.646;23.400;2023-02-16T13:15:29;95985.53;;;29.93;16.52
22651;BME280;11492;42.646;23.400;2023-02-16T13:18:04;95981.78;;;30.47;16.04
22651;BME280;11492;42.646;23.400;2023-02-16T13:20:31;95987.75;;;30.34;16.41
22651;BME280;11492;42.646;23.400;2023-02-16T13:38:08;95953.00;;;31.37;15.30
22651;BME280;11492;42.646;23.400;2023-02-16T13:43:35;95956.44;;;28.51;16.67
22651;BME280;11492;42.646;23.400;2023-02-16T13:46:11;95957.34;;;26.59;18.40
22651;BME280;11492;42.646;23.400;2023-02-16T13:48:49;95966.03;;;24.98;20.15
22651;BME280;11492;42.646;23.400;2023-02-16T13:51:23;95970.28;;;23.51;21.12
22651;BME280;11492;42.646;23.400;2023-02-16T13:54:20;95973.56;;;22.23;22.20
22651;BME280;11492;42.646;23.400;2023-02-16T13:56:47;95968.63;;;21.22;23.76
22651;BME280;11492;42.646;23.400;2023-02-16T14:01:42;95965.38;;;19.52;24.94
22651;BME280;11492;42.646;23.400;2023-02-16T14:09:53;95964.31;;;17.44;27.49
22651;BME280;11492;42.646;23.400;2023-02-16T14:12:30;95968.44;;;17.13;27.98
22651;BME280;11492;42.646;23.400;2023-02-16T14:15:02;95969.09;;;16.95;28.71
22651;BME280;11492;42.646;23.400;2023-02-16T14:17:33;95971.78;;;16.74;29.62
22651;BME280;11492;42.646;23.400;2023-02-16T14:32:48;95960.41;;;16.00;30.85
22651;BME280;11492;42.646;23.400;2023-02-16T14:35:19;95948.25;;;15.87;31.19
22651;BME280;11492;42.646;23.400;2023-02-16T14:43:02;95955.09;;;15.67;31.76
22651;BME280;11492;42.646;23.400;2023-02-16T14:48:17;95961.66;;;15.08;32.13
22651;BME280;11492;42.646;23.400;2023-02-16T14:50:54;95958.78;;;14.89;32.35
22651;BME280;11492;42.646;23.400;2023-02-16T14:58:44;95956.56;;;14.57;33.20
22651;BME280;11492;42.646;23.400;2023-02-16T15:01:15;95951.53;;;14.42;34.09
22651;BME280;11492;42.646;23.400;2023-02-16T15:06:18;95944.81;;;14.19;34.09
22651;BME280;11492;42.646;23.400;2023-02-16T15:08:50;95957.28;;;14.01;34.08
22651;BME280;11492;42.646;23.400;2023-02-16T15:14:00;95952.44;;;13.76;36.01
22651;BME280;11492;42.646;23.400;2023-02-16T15:16:27;95954.72;;;13.57;34.64
22651;BME280;11492;42.646;23.400;2023-02-16T15:18:54;95937.25;;;13.29;35.63
22651;BME280;11492;42.646;23.400;2023-02-16T15:21:25;95948.19;;;13.17;36.53
22651;BME280;11492;42.646;23.400;2023-02-16T15:23:54;95957.34;;;13.05;35.41
22651;BME280;11492;42.646;23.400;2023-02-16T15:26:25;95947.88;;;12.82;38.03
22651;BME280;11492;42.646;23.400;2023-02-16T15:29:25;95946.13;;;12.67;37.18
22651;BME280;11492;42.646;23.400;2023-02-16T15:31:44;95951.72;;;12.48;39.42
22651;BME280;11492;42.646;23.400;2023-02-16T15:34:14;95945.97;;;12.22;39.48
22651;BME280;11492;42.646;23.400;2023-02-16T15:36:50;95945.03;;;12.00;40.89
22651;BME280;11492;42.646;23.400;2023-02-16T15:39:25;95955.25;;;11.86;41.27
22651;BME280;11492;42.646;23.400;2023-02-16T15:41:53;95955.59;;;11.67;40.42
22651;BME280;11492;42.646;23.400;2023-02-16T15:44:34;95947.78;;;11.36;40.41
22651;BME280;11492;42.646;23.400;2023-02-16T15:47:06;95957.78;;;11.31;41.17
22651;BME280;11492;42.646;23.400;2023-02-16T15:49:32;95952.75;;;11.06;40.52
22651;BME280;11492;42.646;23.400;2023-02-16T15:51:59;95952.22;;;10.95;41.21
22651;BME280;11492;42.646;23.400;2023-02-16T15:54:27;95951.16;;;10.64;42.73
22651;BME280;11492;42.646;23.400;2023-02-16T15:56:57;95943.25;;;10.58;42.09